Time;durP1;ratioP1;P1;durP2;ratioP2;P2;SDS_P1;SDS_P2;PMS_P1;PMS_P2;Temp;Humidity;BMP_temperature;BMP_pressure;BME280_temperature;BME280_humidity;BME280_pressure;Samples;Min_cycle;Max_cycle;Signal;HPM_P1;HPM_P2
2023/04/10 06:16:42;;;;;;;13.27;8.98;;;;;;;;;;6721881;19;52404;-80
2023/04/10 06:19:07;;;;;;;12.80;9.13;;;;;;;;;;7349658;19;20007;-80
2023/04/10 06:21:32;;;;;;;14.63;9.80;;;;;;;;;;7356112;19;20035;-78
2023/04/10 06:23:57;;;;;;;13.47;8.87;;;;;;;;;;7362583;19;20007;-77
2023/04/10 06:26:23;;;;;;;13.97;10.20;;;;;;;;;;7372336;19;20668;-81
2023/04/10 06:28:48;;;;;;;14.48;9.60;;;;;;;;;;7374441;19;20239;-80
2023/04/10 06:31:14;;;;;;;13.45;9.30;;;;;;;;;;7356766;19;20550;-79
2023/04/10 06:33:39;;;;;;;14.52;9.45;;;;;;;;;;7355244;19;20046;-79
2023/04/10 06:36:05;;;;;;;13.65;9.13;;;;;;;;;;7359125;19;20101;-80
2023/04/10 06:38:32;;;;;;;12.55;8.75;;;;;;;;;;7358642;19;20001;-80
2023/04/10 06:40:58;;;;;;;12.25;8.85;;;;;;;;;;7350736;19;20013;-80
2023/04/10 06:43:23;;;;;;;11.07;8.20;;;;;;;;;;7355720;19;20476;-81
2023/04/10 06:45:48;;;;;;;11.32;8.32;;;;;;;;;;7361878;19;20309;-83
2023/04/10 06:48:14;;;;;;;13.35;9.10;;;;;;;;;;7368150;19;20400;-82
2023/04/10 06:50:39;;;;;;;14.80;8.73;;;;;;;;;;7359502;19;20455;-84
2023/04/10 06:53:04;;;;;;;12.43;8.98;;;;;;;;;;7357753;19;20287;-83
2023/04/10 06:55:30;;;;;;;13.63;9.40;;;;;;;;;;7353423;19;20298;-83
2023/04/10 06:57:55;;;;;;;12.13;8.80;;;;;;;;;;7362796;19;20396;-83
2023/04/10 07:00:20;;;;;;;12.68;8.95;;;;;;;;;;7369019;19;20270;-82
2023/04/10 07:02:46;;;;;;;12.52;9.23;;;;;;;;;;7371909;19;19991;-82
2023/04/10 07:05:12;;;;;;;13.25;9.13;;;;;;;;;;7366562;19;20349;-82
2023/04/10 07:07:37;;;;;;;13.15;9.38;;;;;;;;;;7368811;19;20050;-82
2023/04/10 07:10:02;;;;;;;13.37;8.97;;;;;;;;;;7355540;19;20115;-81
2023/04/10 07:12:28;;;;;;;13.57;9.73;;;;;;;;;;7359821;19;20349;-81
2023/04/10 07:14:53;;;;;;;12.57;9.35;;;;;;;;;;7364357;19;20003;-82
2023/04/10 07:17:18;;;;;;;12.87;9.07;;;;;;;;;;7338659;19;19995;-83
2023/04/10 07:19:43;;;;;;;13.70;9.60;;;;;;;;;;7355366;19;20238;-81
2023/04/10 07:22:08;;;;;;;12.95;9.18;;;;;;;;;;7360712;19;20587;-83
2023/04/10 07:24:33;;;;;;;12.13;9.03;;;;;;;;;;7367137;19;20315;-82
2023/04/10 07:27:00;;;;;;;12.93;9.07;;;;;;;;;;7356543;19;20268;-82
2023/04/10 07:29:26;;;;;;;13.40;9.23;;;;;;;;;;7346910;19;20020;-83
2023/04/10 07:31:51;;;;;;;12.07;8.60;;;;;;;;;;7366265;19;20400;-83
2023/04/10 07:34:16;;;;;;;12.97;9.33;;;;;;;;;;7367261;19;20248;-81
2023/04/10 07:36:41;;;;;;;13.38;9.40;;;;;;;;;;7358469;19;20254;-83
2023/04/10 07:39:07;;;;;;;12.80;8.80;;;;;;;;;;7364491;19;19994;-81
2023/04/10 07:41:32;;;;;;;12.60;9.02;;;;;;;;;;7356923;19;19991;-82
2023/04/10 07:43:57;;;;;;;12.57;8.95;;;;;;;;;;7356475;19;20327;-81
2023/04/10 07:46:22;;;;;;;12.93;9.30;;;;;;;;;;7363256;19;20330;-81
2023/04/10 07:48:48;;;;;;;13.50;9.80;;;;;;;;;;7358887;19;20103;-83
2023/04/10 07:51:13;;;;;;;12.20;8.25;;;;;;;;;;7373312;19;20237;-83
2023/04/10 07:53:39;;;;;;;12.60;8.35;;;;;;;;;;7378874;19;20429;-83
2023/04/10 07:56:05;;;;;;;12.52;8.68;;;;;;;;;;7354918;19;20312;-82
2023/04/10 07:58:30;;;;;;;11.73;8.27;;;;;;;;;;7364552;19;20038;-82
2023/04/10 08:00:56;;;;;;;12.85;8.57;;;;;;;;;;7357313;19;20368;-83
2023/04/10 08:03:22;;;;;;;11.13;7.97;;;;;;;;;;7367532;19;19999;-83
2023/04/10 08:05:47;;;;;;;10.75;7.60;;;;;;;;;;7355627;19;20323;-84
2023/04/10 08:08:13;;;;;;;11.88;8.43;;;;;;;;;;7375042;19;19998;-81
2023/04/10 08:10:38;;;;;;;11.30;7.53;;;;;;;;;;7377171;19;20115;-81
2023/04/10 08:13:04;;;;;;;11.40;7.90;;;;;;;;;;7370607;19;20031;-81
2023/04/10 08:15:29;;;;;;;11.88;8.10;;;;;;;;;;7364807;19;20263;-82
2023/04/10 08:17:54;;;;;;;10.87;7.00;;;;;;;;;;7372247;19;20014;-81
2023/04/10 08:20:19;;;;;;;11.70;8.07;;;;;;;;;;7357574;19;20650;-83
2023/04/10 08:22:45;;;;;;;10.93;7.63;;;;;;;;;;7367924;19;20006;-81
2023/04/10 08:25:10;;;;;;;10.02;6.97;;;;;;;;;;7363234;19;19990;-80
2023/04/10 08:27:35;;;;;;;10.70;7.60;;;;;;;;;;7368756;19;20074;-81
2023/04/10 08:30:00;;;;;;;10.68;7.45;;;;;;;;;;7373005;19;20243;-83
2023/04/10 08:32:26;;;;;;;10.10;7.20;;;;;;;;;;7370522;19;19998;-81
2023/04/10 08:34:51;;;;;;;10.15;7.50;;;;;;;;;;7374913;19;20243;-80
2023/04/10 08:37:18;;;;;;;10.87;7.50;;;;;;;;;;7370639;19;19998;-82
2023/04/10 08:39:43;;;;;;;14.75;7.88;;;;;;;;;;7371670;19;19999;-80
2023/04/10 08:42:09;;;;;;;10.63;7.57;;;;;;;;;;7358550;19;20002;-82
2023/04/10 08:44:35;;;;;;;11.32;7.82;;;;;;;;;;7365149;19;20586;-81
2023/04/10 08:47:01;;;;;;;12.57;7.88;;;;;;;;;;7349210;19;20073;-79
2023/04/10 08:49:40;;;;;;;10.68;7.53;;;;;;;;;;7358536;19;20042;-81
2023/04/10 08:52:10;;;;;;;9.85;7.00;;;;;;;;;;7354671;19;20006;-79
2023/04/10 08:54:37;;;;;;;11.02;7.68;;;;;;;;;;7357432;19;20011;-81
2023/04/10 08:57:03;;;;;;;11.75;7.85;;;;;;;;;;7338107;19;20005;-80
2023/04/10 08:59:29;;;;;;;10.18;7.25;;;;;;;;;;7361366;19;20010;-80
2023/04/10 09:01:55;;;;;;;10.30;7.32;;;;;;;;;;7362566;19;20419;-80
2023/04/10 09:04:21;;;;;;;11.50;7.38;;;;;;;;;;7361286;19;20002;-81
2023/04/10 09:06:46;;;;;;;10.85;7.32;;;;;;;;;;7345033;19;20022;-79
2023/04/10 09:09:12;;;;;;;10.87;7.53;;;;;;;;;;7357471;19;19995;-79
2023/04/10 09:11:55;;;;;;;10.90;7.33;;;;;;;;;;7362181;19;20243;-82
2023/04/10 09:14:21;;;;;;;11.35;7.90;;;;;;;;;;7365022;19;20247;-80
2023/04/10 09:16:46;;;;;;;10.60;7.35;;;;;;;;;;7359961;19;20003;-81
2023/04/10 09:19:12;;;;;;;12.20;7.65;;;;;;;;;;7359855;19;20016;-81
2023/04/10 09:21:37;;;;;;;10.60;7.27;;;;;;;;;;7357211;19;20335;-82
2023/04/10 09:24:02;;;;;;;11.13;7.70;;;;;;;;;;7360729;19;20236;-82
2023/04/10 09:26:28;;;;;;;10.02;6.70;;;;;;;;;;7353861;19;20281;-81
2023/04/10 09:29:01;;;;;;;10.40;7.30;;;;;;;;;;7368070;19;20003;-81
2023/04/10 09:31:27;;;;;;;11.82;8.02;;;;;;;;;;7362424;19;20145;-81
2023/04/10 09:34:05;;;;;;;10.45;7.25;;;;;;;;;;7363284;19;19987;-84
2023/04/10 09:36:30;;;;;;;10.88;7.57;;;;;;;;;;7369925;19;20512;-81
2023/04/10 09:38:55;;;;;;;10.00;7.00;;;;;;;;;;7376377;19;20131;-81
2023/04/10 09:41:20;;;;;;;11.98;7.47;;;;;;;;;;7369992;19;20243;-81
2023/04/10 09:43:46;;;;;;;12.47;7.30;;;;;;;;;;7376851;19;19998;-82
2023/04/10 09:46:11;;;;;;;9.75;6.50;;;;;;;;;;7371740;19;19991;-81
2023/04/10 09:48:48;;;;;;;10.48;7.03;;;;;;;;;;7366193;19;20005;-82
2023/04/10 09:51:30;;;;;;;9.82;6.80;;;;;;;;;;7372152;19;20002;-81
2023/04/10 09:53:55;;;;;;;10.10;6.75;;;;;;;;;;7368968;19;19998;-82
2023/04/10 09:56:21;;;;;;;9.00;5.90;;;;;;;;;;7360056;19;20101;-82
2023/04/10 09:58:47;;;;;;;9.25;6.40;;;;;;;;;;7372701;19;20469;-81
2023/04/10 10:01:12;;;;;;;9.57;5.90;;;;;;;;;;7366710;19;20015;-81
2023/04/10 10:03:37;;;;;;;8.80;5.57;;;;;;;;;;7368796;19;20578;-80
2023/04/10 10:06:03;;;;;;;8.63;5.50;;;;;;;;;;7367096;19;20470;-81
2023/04/10 10:08:29;;;;;;;8.38;5.25;;;;;;;;;;7365328;19;20052;-80
2023/04/10 10:10:57;;;;;;;8.13;5.40;;;;;;;;;;7369292;19;20027;-80
2023/04/10 10:13:36;;;;;;;9.20;5.28;;;;;;;;;;7367211;19;20436;-81
2023/04/10 10:16:14;;;;;;;8.48;5.50;;;;;;;;;;7352158;19;20003;-81
2023/04/10 10:19:00;;;;;;;7.68;5.15;;;;;;;;;;7373437;19;20006;-81
2023/04/10 10:21:26;;;;;;;7.90;5.40;;;;;;;;;;7367409;19;20002;-81
2023/04/10 10:23:53;;;;;;;9.05;5.22;;;;;;;;;;7366728;19;20412;-81
2023/04/10 10:26:20;;;;;;;8.68;5.57;;;;;;;;;;7349512;19;20043;-80
2023/04/10 10:28:45;;;;;;;7.53;4.95;;;;;;;;;;7364630;19;20003;-81
2023/04/10 10:31:11;;;;;;;7.85;4.80;;;;;;;;;;7366996;19;20003;-80
2023/04/10 10:33:36;;;;;;;8.55;5.22;;;;;;;;;;7368319;19;20046;-81
2023/04/10 10:36:03;;;;;;;8.52;5.45;;;;;;;;;;7366717;19;20018;-81
2023/04/10 10:38:29;;;;;;;7.50;4.72;;;;;;;;;;7349349;19;20250;-81
2023/04/10 10:41:01;;;;;;;7.75;4.85;;;;;;;;;;7372435;19;20006;-79
2023/04/10 10:43:26;;;;;;;9.05;5.40;;;;;;;;;;7361288;19;20308;-81
2023/04/10 10:45:56;;;;;;;8.27;4.97;;;;;;;;;;7364641;19;19998;-81
2023/04/10 10:48:22;;;;;;;7.75;4.85;;;;;;;;;;7359725;19;20003;-80
2023/04/10 10:50:51;;;;;;;7.30;4.43;;;;;;;;;;7367677;19;20498;-81
2023/04/10 10:53:35;;;;;;;8.23;4.68;;;;;;;;;;7367108;19;20371;-80
2023/04/10 10:56:01;;;;;;;;;;;;;;;;;;7358170;19;19995;-81
2023/04/10 10:58:45;;;;;;;7.00;4.30;;;;;;;;;;7357615;19;20064;-81
2023/04/10 11:01:10;;;;;;;;;;;;;;;;;;7364109;19;20015;-80
2023/04/10 11:03:36;;;;;;;7.25;4.50;;;;;;;;;;7370901;19;19911;-81
2023/04/10 11:06:02;;;;;;;7.60;4.60;;;;;;;;;;7364335;19;19994;-81
2023/04/10 11:08:31;;;;;;;7.28;4.45;;;;;;;;;;7365460;19;20010;-81
2023/04/10 11:11:04;;;;;;;9.52;5.40;;;;;;;;;;7367419;19;20002;-80
2023/04/10 11:13:29;;;;;;;8.30;5.03;;;;;;;;;;7369020;19;20462;-81
2023/04/10 11:15:55;;;;;;;7.07;4.53;;;;;;;;;;7364198;19;19995;-82
2023/04/10 11:18:40;;;;;;;7.82;4.18;;;;;;;;;;7362421;19;20014;-80
2023/04/10 11:21:13;;;;;;;7.30;4.82;;;;;;;;;;7366580;19;20010;-79
2023/04/10 11:23:58;;;;;;;7.82;4.93;;;;;;;;;;7366477;19;20010;-80
2023/04/10 11:26:38;;;;;;;7.80;4.72;;;;;;;;;;7359881;19;20616;-79
2023/04/10 11:29:03;;;;;;;7.30;4.88;;;;;;;;;;7366686;19;19999;-79
2023/04/10 11:31:29;;;;;;;8.93;5.00;;;;;;;;;;7364712;19;20596;-80
2023/04/10 11:34:01;;;;;;;7.18;4.50;;;;;;;;;;7361724;19;20440;-79
2023/04/10 11:36:26;;;;;;;8.10;4.68;;;;;;;;;;7358418;19;20029;-80
2023/04/10 11:38:55;;;;;;;7.10;4.70;;;;;;;;;;7367775;19;20582;-79
2023/04/10 11:41:20;;;;;;;7.35;4.45;;;;;;;;;;7359387;19;20734;-79
2023/04/10 11:43:49;;;;;;;9.23;4.65;;;;;;;;;;7366775;19;20420;-79
2023/04/10 11:46:15;;;;;;;7.50;4.72;;;;;;;;;;7364148;19;20050;-80
2023/04/10 11:48:40;;;;;;;6.83;4.40;;;;;;;;;;7367036;19;20487;-78
2023/04/10 11:51:06;;;;;;;6.47;4.13;;;;;;;;;;7364364;19;20009;-79
2023/04/10 11:53:31;;;;;;;7.60;4.20;;;;;;;;;;7361418;19;20341;-79
2023/04/10 11:55:56;;;;;;;7.50;4.67;;;;;;;;;;7361144;19;20018;-79
2023/04/10 11:58:26;;;;;;;6.13;4.10;;;;;;;;;;7363353;19;20322;-79
2023/04/10 12:00:54;;;;;;;7.95;4.55;;;;;;;;;;7363769;19;20018;-79
2023/04/10 12:03:30;;;;;;;6.57;4.05;;;;;;;;;;7365104;19;20010;-79
2023/04/10 12:05:55;;;;;;;7.00;4.20;;;;;;;;;;7362547;19;20760;-79
2023/04/10 12:08:22;;;;;;;7.40;4.40;;;;;;;;;;7360682;19;20435;-79
2023/04/10 12:10:47;;;;;;;9.75;5.15;;;;;;;;;;7363602;19;20252;-79
2023/04/10 12:13:25;;;;;;;8.87;4.33;;;;;;;;;;7363635;19;20006;-79
2023/04/10 12:15:51;;;;;;;7.43;4.50;;;;;;;;;;7360769;19;20275;-79
2023/04/10 12:18:16;;;;;;;8.65;4.45;;;;;;;;;;7341652;19;20218;-79
2023/04/10 12:20:42;;;;;;;6.50;3.60;;;;;;;;;;7362585;19;19994;-79
2023/04/10 12:23:08;;;;;;;6.88;4.10;;;;;;;;;;7361555;19;19998;-79
2023/04/10 12:25:34;;;;;;;9.27;4.32;;;;;;;;;;7357233;19;20101;-78
2023/04/10 12:27:59;;;;;;;7.75;4.30;;;;;;;;;;7354614;19;20075;-79
2023/04/10 12:30:24;;;;;;;7.88;4.65;;;;;;;;;;7357085;19;19999;-78
2023/04/10 12:32:51;;;;;;;7.37;3.97;;;;;;;;;;7360933;19;20426;-78
2023/04/10 12:35:16;;;;;;;7.53;4.65;;;;;;;;;;7365242;19;20031;-79
2023/04/10 12:37:48;;;;;;;6.95;4.57;;;;;;;;;;7362536;19;19998;-77
2023/04/10 12:40:13;;;;;;;8.68;4.18;;;;;;;;;;7358552;19;20074;-78
2023/04/10 12:42:40;;;;;;;7.13;3.90;;;;;;;;;;7349485;19;20003;-79
2023/04/10 12:45:08;;;;;;;8.85;4.88;;;;;;;;;;7353841;19;20111;-78
2023/04/10 12:47:41;;;;;;;7.28;3.92;;;;;;;;;;7335728;19;20036;-79
2023/04/10 12:50:07;;;;;;;7.45;4.57;;;;;;;;;;7353277;19;20002;-78
2023/04/10 12:52:33;;;;;;;6.53;3.90;;;;;;;;;;7346513;19;20411;-79
2023/04/10 12:55:14;;;;;;;6.97;4.18;;;;;;;;;;7355855;19;20593;-79
2023/04/10 12:57:41;;;;;;;7.95;4.63;;;;;;;;;;7351633;19;20006;-79
2023/04/10 13:00:08;;;;;;;6.95;4.40;;;;;;;;;;7366068;19;20018;-79
2023/04/10 13:02:34;;;;;;;7.15;3.83;;;;;;;;;;7364457;19;20091;-79
2023/04/10 13:05:00;;;;;;;9.48;4.60;;;;;;;;;;7361032;19;20002;-79
2023/04/10 13:07:25;;;;;;;7.95;4.95;;;;;;;;;;7363457;19;20452;-80
2023/04/10 13:09:50;;;;;;;7.75;3.92;;;;;;;;;;7363164;19;20271;-79
2023/04/10 13:12:16;;;;;;;7.03;4.30;;;;;;;;;;7347809;19;19994;-79
2023/04/10 13:14:41;;;;;;;7.28;4.63;;;;;;;;;;7365172;19;20021;-79
2023/04/10 13:17:06;;;;;;;6.67;4.40;;;;;;;;;;7351877;19;20010;-78
2023/04/10 13:19:31;;;;;;;7.03;4.43;;;;;;;;;;7366511;19;20259;-79
2023/04/10 13:21:59;;;;;;;7.40;4.43;;;;;;;;;;7367115;19;20839;-79
2023/04/10 13:24:25;;;;;;;6.15;3.83;;;;;;;;;;7364724;19;20010;-79
2023/04/10 13:26:50;;;;;;;6.20;3.83;;;;;;;;;;7355314;19;19999;-79
2023/04/10 13:29:15;;;;;;;6.13;3.90;;;;;;;;;;7363978;19;20090;-79
2023/04/10 13:31:40;;;;;;;6.45;3.97;;;;;;;;;;7364263;19;20433;-78
2023/04/10 13:34:05;;;;;;;9.80;4.67;;;;;;;;;;7365320;19;20125;-80
2023/04/10 13:36:31;;;;;;;7.00;4.17;;;;;;;;;;7363071;19;20582;-79
2023/04/10 13:38:56;;;;;;;6.63;3.60;;;;;;;;;;7365268;19;20434;-79
2023/04/10 13:41:22;;;;;;;5.87;3.60;;;;;;;;;;7358747;19;20082;-79
2023/04/10 13:43:47;;;;;;;7.00;3.90;;;;;;;;;;7361063;19;20816;-79
2023/04/10 13:46:12;;;;;;;6.33;3.80;;;;;;;;;;7364700;19;20003;-79
2023/04/10 13:48:40;;;;;;;7.83;4.53;;;;;;;;;;7360864;19;20231;-79
2023/04/10 13:51:05;;;;;;;7.68;3.80;;;;;;;;;;7364435;19;20125;-79
2023/04/10 13:53:30;;;;;;;7.97;3.53;;;;;;;;;;7363339;19;20604;-79
2023/04/10 13:55:56;;;;;;;7.83;4.53;;;;;;;;;;7361080;19;20002;-80
2023/04/10 13:58:21;;;;;;;6.97;4.25;;;;;;;;;;7364675;19;20094;-78
2023/04/10 14:00:46;;;;;;;7.05;4.30;;;;;;;;;;7364025;19;20370;-79
2023/04/10 14:03:12;;;;;;;6.33;3.90;;;;;;;;;;7366716;19;20030;-80
2023/04/10 14:05:37;;;;;;;7.43;4.53;;;;;;;;;;7363389;19;20720;-79
2023/04/10 14:08:03;;;;;;;10.00;5.03;;;;;;;;;;7364278;19;20247;-79
2023/04/10 14:10:28;;;;;;;10.13;4.38;;;;;;;;;;7358420;19;20034;-80
2023/04/10 14:12:53;;;;;;;7.10;4.30;;;;;;;;;;7344514;19;20443;-79
2023/04/10 14:15:18;;;;;;;6.90;4.07;;;;;;;;;;7356447;19;20347;-79
2023/04/10 14:17:43;;;;;;;7.23;4.43;;;;;;;;;;7356410;19;20655;-79
2023/04/10 14:20:12;;;;;;;8.20;4.73;;;;;;;;;;7362910;19;20071;-79
2023/04/10 14:22:37;;;;;;;7.55;4.60;;;;;;;;;;7359649;19;20613;-79
2023/04/10 14:25:03;;;;;;;7.70;4.67;;;;;;;;;;7364099;19;20130;-79
2023/04/10 14:27:30;;;;;;;7.30;4.45;;;;;;;;;;7350612;19;20006;-79
2023/04/10 14:29:55;;;;;;;8.18;4.55;;;;;;;;;;7355510;19;20415;-80
2023/04/10 14:32:20;;;;;;;7.47;4.38;;;;;;;;;;7364404;19;20002;-79
2023/04/10 14:34:45;;;;;;;6.82;4.30;;;;;;;;;;7360511;19;19998;-78
2023/04/10 14:37:10;;;;;;;6.60;4.05;;;;;;;;;;7358505;19;20462;-79
2023/04/10 14:39:36;;;;;;;7.93;4.10;;;;;;;;;;7354511;19;20139;-79
2023/04/10 14:42:01;;;;;;;7.35;4.15;;;;;;;;;;7356105;19;20041;-79
2023/04/10 14:44:27;;;;;;;6.38;3.90;;;;;;;;;;7351755;19;20019;-79
2023/04/10 14:46:52;;;;;;;6.93;3.88;;;;;;;;;;7364488;19;20615;-79
2023/04/10 14:49:17;;;;;;;7.00;4.07;;;;;;;;;;7363177;19;20022;-79
2023/04/10 14:51:43;;;;;;;6.37;3.73;;;;;;;;;;7358042;19;20271;-79
2023/04/10 14:54:09;;;;;;;8.13;3.78;;;;;;;;;;7361487;19;20242;-79
2023/04/10 14:56:35;;;;;;;7.72;3.90;;;;;;;;;;7362793;19;20459;-79
2023/04/10 14:59:00;;;;;;;7.40;3.95;;;;;;;;;;7348793;19;20148;-79
2023/04/10 15:01:25;;;;;;;6.43;3.93;;;;;;;;;;7365183;19;20115;-79
2023/04/10 15:03:52;;;;;;;6.33;4.07;;;;;;;;;;7353022;19;20685;-79
2023/04/10 15:06:17;;;;;;;6.15;4.03;;;;;;;;;;7359249;19;20018;-79
2023/04/10 15:08:42;;;;;;;6.72;4.03;;;;;;;;;;7355440;19;20014;-79
2023/04/10 15:11:07;;;;;;;6.70;4.25;;;;;;;;;;7350833;19;20055;-79
2023/04/10 15:13:32;;;;;;;6.67;4.10;;;;;;;;;;7357774;19;20487;-79
2023/04/10 15:15:59;;;;;;;7.88;3.85;;;;;;;;;;7356558;19;20421;-79
2023/04/10 15:18:24;;;;;;;6.50;4.10;;;;;;;;;;7362841;19;20460;-79
2023/04/10 15:20:51;;;;;;;8.43;4.07;;;;;;;;;;7360922;19;20033;-79
2023/04/10 15:23:16;;;;;;;7.50;4.43;;;;;;;;;;7365774;19;20038;-79
2023/04/10 15:25:41;;;;;;;8.77;4.10;;;;;;;;;;7354766;19;20023;-79
2023/04/10 15:28:07;;;;;;;9.77;4.03;;;;;;;;;;7352668;19;20484;-79
2023/04/10 15:30:32;;;;;;;6.32;4.20;;;;;;;;;;7362354;19;20228;-79
2023/04/10 15:32:57;;;;;;;8.45;4.35;;;;;;;;;;7357559;19;20006;-79
2023/04/10 15:35:25;;;;;;;6.20;3.97;;;;;;;;;;7360457;19;20430;-79
2023/04/10 15:37:50;;;;;;;8.15;4.15;;;;;;;;;;7353651;19;20029;-79
2023/04/10 15:40:15;;;;;;;6.60;3.33;;;;;;;;;;7345911;19;20498;-79
2023/04/10 15:42:40;;;;;;;7.07;3.40;;;;;;;;;;7346810;19;20122;-79
2023/04/10 15:45:05;;;;;;;6.83;4.10;;;;;;;;;;7351892;19;20099;-79
2023/04/10 15:47:31;;;;;;;6.35;3.63;;;;;;;;;;7357261;19;20243;-79
2023/04/10 15:49:56;;;;;;;6.07;3.87;;;;;;;;;;7361687;19;20574;-79
2023/04/10 15:52:21;;;;;;;5.90;3.55;;;;;;;;;;7358321;19;20866;-79
2023/04/10 15:54:46;;;;;;;6.57;3.53;;;;;;;;;;7362015;19;19995;-79
2023/04/10 15:57:11;;;;;;;6.78;3.60;;;;;;;;;;7358633;19;20102;-80
2023/04/10 15:59:37;;;;;;;6.13;3.87;;;;;;;;;;7362109;19;20026;-81
2023/04/10 16:02:02;;;;;;;6.07;3.60;;;;;;;;;;7362129;19;20252;-79
2023/04/10 16:04:27;;;;;;;8.35;3.90;;;;;;;;;;7358558;19;20118;-80
2023/04/10 16:06:55;;;;;;;7.63;4.10;;;;;;;;;;7359196;19;20003;-80
2023/04/10 16:09:20;;;;;;;6.57;3.75;;;;;;;;;;7358989;19;19999;-81
2023/04/10 16:11:45;;;;;;;6.97;4.00;;;;;;;;;;7356207;19;20006;-79
2023/04/10 16:14:10;;;;;;;6.22;3.72;;;;;;;;;;7363256;19;20001;-81
2023/04/10 16:16:36;;;;;;;7.40;4.00;;;;;;;;;;7348098;19;20432;-81
2023/04/10 16:19:01;;;;;;;5.87;3.57;;;;;;;;;;7358511;19;20256;-79
2023/04/10 16:21:26;;;;;;;7.70;3.67;;;;;;;;;;7364353;19;19998;-79
2023/04/10 16:23:52;;;;;;;7.30;3.27;;;;;;;;;;7356845;19;20152;-79
2023/04/10 16:26:17;;;;;;;7.13;4.00;;;;;;;;;;7359158;19;20278;-79
2023/04/10 16:28:42;;;;;;;7.55;3.78;;;;;;;;;;7356039;19;20114;-81
2023/04/10 16:31:08;;;;;;;7.03;4.30;;;;;;;;;;7331001;19;20084;-79
2023/04/10 16:33:33;;;;;;;6.75;3.70;;;;;;;;;;7350938;19;20267;-79
2023/04/10 16:35:58;;;;;;;7.73;3.87;;;;;;;;;;7358117;19;20031;-78
2023/04/10 16:38:23;;;;;;;5.93;3.53;;;;;;;;;;7348700;19;20951;-78
2023/04/10 16:40:48;;;;;;;7.28;4.07;;;;;;;;;;7359070;19;20289;-81
2023/04/10 16:43:14;;;;;;;7.07;3.90;;;;;;;;;;7357465;19;20385;-80
2023/04/10 16:45:39;;;;;;;7.43;3.90;;;;;;;;;;7356515;19;20006;-81
2023/04/10 16:48:04;;;;;;;11.23;3.65;;;;;;;;;;7347852;19;19999;-81
2023/04/10 16:50:33;;;;;;;7.07;4.22;;;;;;;;;;7359204;19;20498;-81
2023/04/10 16:52:58;;;;;;;6.03;3.72;;;;;;;;;;7360161;19;20003;-80
2023/04/10 16:55:23;;;;;;;7.35;4.30;;;;;;;;;;7361582;19;20021;-81
2023/04/10 16:57:48;;;;;;;6.53;3.70;;;;;;;;;;7357986;19;20377;-81
2023/04/10 17:00:14;;;;;;;6.37;3.53;;;;;;;;;;7348501;19;20303;-81
2023/04/10 17:02:41;;;;;;;6.43;3.58;;;;;;;;;;7354969;19;20725;-81
2023/04/10 17:05:06;;;;;;;6.90;3.63;;;;;;;;;;7357004;19;20011;-80
2023/04/10 17:07:32;;;;;;;7.22;3.63;;;;;;;;;;7355003;19;20005;-80
2023/04/10 17:09:58;;;;;;;7.43;3.65;;;;;;;;;;7348365;19;20166;-80
2023/04/10 17:12:23;;;;;;;5.50;3.38;;;;;;;;;;7357383;19;20002;-80
2023/04/10 17:14:48;;;;;;;6.73;3.57;;;;;;;;;;7342113;19;20397;-81
2023/04/10 17:17:13;;;;;;;6.05;3.45;;;;;;;;;;7340033;19;20263;-80
2023/04/10 17:19:38;;;;;;;9.35;3.60;;;;;;;;;;7353700;19;20002;-80
2023/04/10 17:22:05;;;;;;;5.22;3.05;;;;;;;;;;7350688;19;20106;-80
2023/04/10 17:24:30;;;;;;;5.88;3.47;;;;;;;;;;7357199;19;19999;-81
2023/04/10 17:26:55;;;;;;;7.72;3.80;;;;;;;;;;7347819;19;20002;-81
2023/04/10 17:29:21;;;;;;;9.65;3.75;;;;;;;;;;7357822;19;20003;-79
2023/04/10 17:31:46;;;;;;;7.00;3.40;;;;;;;;;;7353335;19;20035;-79
2023/04/10 17:34:12;;;;;;;6.77;3.87;;;;;;;;;;7361884;19;20015;-80
2023/04/10 17:36:37;;;;;;;6.28;3.40;;;;;;;;;;7354718;19;20007;-79
2023/04/10 17:39:02;;;;;;;6.57;3.03;;;;;;;;;;7348960;19;20029;-79
2023/04/10 17:41:27;;;;;;;6.38;3.38;;;;;;;;;;7350342;19;20626;-79
2023/04/10 17:43:52;;;;;;;5.73;3.00;;;;;;;;;;7352598;19;20002;-79
2023/04/10 17:46:18;;;;;;;5.93;2.70;;;;;;;;;;7352283;19;19999;-79
2023/04/10 17:48:43;;;;;;;7.27;3.13;;;;;;;;;;7352970;19;20308;-80
2023/04/10 17:51:09;;;;;;;5.75;2.58;;;;;;;;;;7358495;19;20251;-80
2023/04/10 17:53:34;;;;;;;7.50;2.58;;;;;;;;;;7357226;19;20130;-79
2023/04/10 17:56:00;;;;;;;4.70;2.25;;;;;;;;;;7345788;19;20078;-79
2023/04/10 17:58:25;;;;;;;5.20;2.40;;;;;;;;;;7358556;19;20466;-79
2023/04/10 18:00:51;;;;;;;5.95;2.45;;;;;;;;;;7360347;19;20386;-80
2023/04/10 18:03:16;;;;;;;4.97;2.50;;;;;;;;;;7349802;19;20019;-79
2023/04/10 18:05:41;;;;;;;5.97;2.43;;;;;;;;;;7361926;19;20018;-80
2023/04/10 18:08:07;;;;;;;6.30;2.27;;;;;;;;;;7355402;19;20632;-79
2023/04/10 18:10:32;;;;;;;5.40;2.28;;;;;;;;;;7370374;19;20259;-79
2023/04/10 18:12:57;;;;;;;6.07;2.53;;;;;;;;;;7358750;19;20001;-79
2023/04/10 18:15:23;;;;;;;5.43;2.40;;;;;;;;;;7346384;19;20018;-80
2023/04/10 18:17:48;;;;;;;5.07;2.30;;;;;;;;;;7358236;19;20274;-79
2023/04/10 18:20:14;;;;;;;5.87;2.20;;;;;;;;;;7359791;19;20006;-79
2023/04/10 18:22:39;;;;;;;5.80;1.90;;;;;;;;;;7366088;19;20224;-80
2023/04/10 18:25:04;;;;;;;5.85;2.30;;;;;;;;;;7351970;19;20551;-79
2023/04/10 18:27:30;;;;;;;4.60;2.03;;;;;;;;;;7356465;19;20439;-79
2023/04/10 18:29:56;;;;;;;5.15;2.42;;;;;;;;;;7365222;19;20003;-79
2023/04/10 18:32:21;;;;;;;5.20;2.30;;;;;;;;;;7359144;19;20066;-79
2023/04/10 18:34:46;;;;;;;5.80;2.20;;;;;;;;;;7366932;19;20029;-79
2023/04/10 18:37:11;;;;;;;5.17;2.23;;;;;;;;;;7347485;19;20007;-79
2023/04/10 18:39:37;;;;;;;5.77;2.10;;;;;;;;;;7362713;19;20243;-79
2023/04/10 18:42:02;;;;;;;5.57;2.47;;;;;;;;;;7354728;19;20015;-80
2023/04/10 18:44:27;;;;;;;5.43;2.38;;;;;;;;;;7353440;19;19998;-79
2023/04/10 18:46:52;;;;;;;5.13;2.13;;;;;;;;;;7352595;19;20002;-80
2023/04/10 18:49:18;;;;;;;4.47;2.03;;;;;;;;;;7368403;19;20082;-80
2023/04/10 18:51:43;;;;;;;7.72;2.45;;;;;;;;;;7367390;19;20260;-81
2023/04/10 18:54:08;;;;;;;8.23;2.38;;;;;;;;;;7364275;19;20145;-80
2023/04/10 18:56:34;;;;;;;5.40;2.30;;;;;;;;;;7366122;19;20014;-82
2023/04/10 18:58:59;;;;;;;5.22;2.30;;;;;;;;;;7364744;19;20309;-80
2023/04/10 19:01:25;;;;;;;7.70;2.75;;;;;;;;;;7359137;19;20015;-81
2023/04/10 19:03:50;;;;;;;8.30;2.70;;;;;;;;;;7357398;19;19999;-80
2023/04/10 19:06:16;;;;;;;5.43;2.20;;;;;;;;;;7360214;19;20006;-79
2023/04/10 19:08:41;;;;;;;7.10;2.50;;;;;;;;;;7363225;19;20239;-80
2023/04/10 19:11:06;;;;;;;7.28;2.58;;;;;;;;;;7368087;19;20463;-82
2023/04/10 19:13:32;;;;;;;7.18;2.38;;;;;;;;;;7371124;19;19999;-82
2023/04/10 19:15:58;;;;;;;7.53;2.55;;;;;;;;;;7358968;19;20003;-81
2023/04/10 19:18:23;;;;;;;7.18;2.50;;;;;;;;;;7369625;19;19995;-80
2023/04/10 19:20:48;;;;;;;6.93;2.30;;;;;;;;;;7367294;19;20380;-82
2023/04/10 19:23:14;;;;;;;10.63;3.00;;;;;;;;;;7366147;19;19991;-82
2023/04/10 19:25:39;;;;;;;5.60;2.17;;;;;;;;;;7360301;19;20021;-81
2023/04/10 19:28:05;;;;;;;9.23;3.05;;;;;;;;;;7345862;19;20399;-83
2023/04/10 19:30:30;;;;;;;6.43;2.50;;;;;;;;;;7365671;19;20032;-80
2023/04/10 19:32:55;;;;;;;5.95;2.78;;;;;;;;;;7362760;19;19990;-82
2023/04/10 19:35:21;;;;;;;6.27;2.93;;;;;;;;;;7361261;19;20002;-80
2023/04/10 19:37:46;;;;;;;6.22;2.60;;;;;;;;;;7360545;19;20858;-80
2023/04/10 19:40:12;;;;;;;9.93;2.92;;;;;;;;;;7364257;19;19999;-80
2023/04/10 19:42:37;;;;;;;5.50;2.63;;;;;;;;;;7362508;19;20117;-82
2023/04/10 19:45:03;;;;;;;8.65;2.72;;;;;;;;;;7362614;19;20002;-80
2023/04/10 19:47:28;;;;;;;10.70;2.70;;;;;;;;;;7363236;19;20303;-82
2023/04/10 19:49:53;;;;;;;6.18;3.15;;;;;;;;;;7362507;19;20002;-82
2023/04/10 19:52:18;;;;;;;8.63;3.00;;;;;;;;;;7361063;19;20007;-81
2023/04/10 19:54:44;;;;;;;8.90;2.80;;;;;;;;;;7364716;19;20615;-81
2023/04/10 19:57:09;;;;;;;7.90;3.10;;;;;;;;;;7361279;19;20105;-81
2023/04/10 19:59:35;;;;;;;8.23;2.80;;;;;;;;;;7365056;19;20459;-81
2023/04/10 20:02:00;;;;;;;7.63;2.90;;;;;;;;;;7360357;19;20430;-80
2023/04/10 20:04:25;;;;;;;6.90;3.17;;;;;;;;;;7348163;19;20025;-80
2023/04/10 20:06:50;;;;;;;8.02;3.08;;;;;;;;;;7360933;19;20263;-82
2023/04/10 20:09:16;;;;;;;8.03;3.83;;;;;;;;;;7356632;19;20291;-80
2023/04/10 20:11:41;;;;;;;6.30;3.38;;;;;;;;;;7361316;19;20263;-80
2023/04/10 20:14:06;;;;;;;7.88;3.90;;;;;;;;;;7361182;19;20376;-80
2023/04/10 20:16:31;;;;;;;9.33;4.80;;;;;;;;;;7356780;19;20028;-83
2023/04/10 20:18:56;;;;;;;10.55;4.18;;;;;;;;;;7359344;19;20858;-82
2023/04/10 20:21:22;;;;;;;10.37;4.40;;;;;;;;;;7355155;19;20046;-80
2023/04/10 20:23:47;;;;;;;8.13;4.30;;;;;;;;;;7361558;19;20359;-80
2023/04/10 20:26:13;;;;;;;9.65;5.13;;;;;;;;;;7357572;19;20785;-82
2023/04/10 20:28:38;;;;;;;8.60;5.40;;;;;;;;;;7361012;19;20006;-81
2023/04/10 20:31:04;;;;;;;11.05;5.82;;;;;;;;;;7361592;19;20073;-81
2023/04/10 20:33:29;;;;;;;10.57;5.28;;;;;;;;;;7362766;19;20002;-82
2023/04/10 20:35:54;;;;;;;9.27;5.70;;;;;;;;;;7356004;19;20065;-81
2023/04/10 20:38:20;;;;;;;9.88;5.88;;;;;;;;;;7360565;19;20846;-80
2023/04/10 20:40:45;;;;;;;11.15;5.85;;;;;;;;;;7362066;19;20420;-81
2023/04/10 20:43:11;;;;;;;12.03;5.77;;;;;;;;;;7360896;19;20025;-80
2023/04/10 20:45:39;;;;;;;9.85;5.85;;;;;;;;;;7357208;19;20794;-83
2023/04/10 20:48:05;;;;;;;10.52;5.68;;;;;;;;;;7359410;19;20010;-80
2023/04/10 20:50:30;;;;;;;13.23;6.35;;;;;;;;;;7361178;19;20088;-80